createdAt,value
2018-10-21T00:00:20.070Z,101647.59
2018-10-21T00:01:22.724Z,101645.89
2018-10-21T00:02:25.503Z,101646.26
2018-10-21T00:03:28.023Z,101647.22
2018-10-21T00:04:30.666Z,101648.55
2018-10-21T00:05:33.311Z,101641.02
2018-10-21T00:06:35.962Z,101637.88
2018-10-21T00:07:38.807Z,101641.02
2018-10-21T00:08:41.447Z,101633.95
2018-10-21T00:09:44.102Z,101632.55
2018-10-21T00:10:46.750Z,101627.67
2018-10-21T00:11:49.383Z,101628.54
2018-10-21T00:12:52.029Z,101617.00
2018-10-21T00:13:54.679Z,101617.86
2018-10-21T00:14:57.350Z,101610.83
2018-10-21T00:16:00.002Z,101608.59
2018-10-21T00:17:02.905Z,101608.16
2018-10-21T00:18:05.556Z,101603.75
2018-10-21T00:19:08.194Z,101593.91
2018-10-21T00:20:10.838Z,101599.25
2018-10-21T00:21:13.492Z,101602.05
2018-10-21T00:22:16.158Z,101604.16
2018-10-21T00:23:18.805Z,101592.14
2018-10-21T00:24:21.458Z,101601.09
2018-10-21T00:25:24.106Z,101582.03
2018-10-21T00:26:26.754Z,101591.24
2018-10-21T00:27:29.483Z,101573.16
2018-10-21T00:28:32.144Z,101580.13
2018-10-21T00:29:34.790Z,101571.83
2018-10-21T00:30:37.446Z,101574.03
2018-10-21T00:31:40.186Z,101573.16
2018-10-21T00:32:49.866Z,101572.33
2018-10-21T00:33:52.522Z,101566.49
2018-10-21T00:34:55.161Z,101565.16
2018-10-21T00:35:57.809Z,101562.48
2018-10-21T00:37:00.590Z,101563.45
2018-10-21T00:38:03.270Z,101553.65
2018-10-21T00:39:08.509Z,101561.66
2018-10-21T00:40:11.173Z,101559.45
2018-10-21T00:41:13.802Z,101558.98
2018-10-21T00:42:16.554Z,101553.15
2018-10-21T00:43:19.198Z,101554.11
2018-10-21T00:44:21.830Z,101560.32
2018-10-21T00:45:24.486Z,101560.32
2018-10-21T00:46:27.130Z,101556.31
2018-10-21T00:47:29.883Z,101561.16
2018-10-21T00:48:32.544Z,101561.66
2018-10-21T00:49:35.186Z,101562.98
2018-10-21T00:50:37.846Z,101563.83
2018-10-21T00:51:40.502Z,101560.32
2018-10-21T00:52:43.158Z,101559.35
2018-10-21T00:53:45.794Z,101559.45
2018-10-21T00:54:48.426Z,101560.69
2018-10-21T00:55:51.067Z,101554.84
2018-10-21T00:56:53.728Z,101549.88
2018-10-21T00:57:56.486Z,101548.11
2018-10-21T00:58:59.134Z,101536.93
2018-10-21T01:00:01.781Z,101535.13
2018-10-21T01:01:04.610Z,101531.13
2018-10-21T01:02:07.279Z,101537.20
2018-10-21T01:03:10.020Z,101535.96
2018-10-21T01:04:12.759Z,101526.16
2018-10-21T01:05:15.382Z,101520.81
2018-10-21T01:06:18.038Z,101525.19
2018-10-21T01:07:20.710Z,101511.48
2018-10-21T01:08:23.450Z,101513.64
2018-10-21T01:09:26.106Z,101517.28
2018-10-21T01:10:28.738Z,101517.64
2018-10-21T01:11:31.394Z,101516.31
2018-10-21T01:12:34.026Z,101512.30
2018-10-21T01:13:36.778Z,101506.50
2018-10-21T01:14:39.422Z,101501.16
2018-10-21T01:15:42.063Z,101498.49
2018-10-21T01:16:44.698Z,101503.83
2018-10-21T01:17:47.398Z,101498.49
2018-10-21T01:18:50.263Z,101499.72
2018-10-21T01:19:52.902Z,101493.52
2018-10-21T01:20:55.557Z,101488.19
2018-10-21T01:21:58.248Z,101481.51
2018-10-21T01:23:00.962Z,101477.51
2018-10-21T01:24:03.796Z,101473.03
2018-10-21T01:25:07.294Z,101467.70
2018-10-21T01:26:09.951Z,101455.29
2018-10-21T01:27:12.638Z,101453.02
2018-10-21T01:28:15.286Z,101452.62
2018-10-21T01:29:17.995Z,101447.69
2018-10-21T01:30:20.651Z,101443.28
2018-10-21T01:31:23.566Z,101445.48
2018-10-21T01:32:26.207Z,101442.81
2018-10-21T01:33:28.882Z,101446.81
2018-10-21T01:34:31.562Z,101444.15
2018-10-21T01:35:34.222Z,101445.38
2018-10-21T01:36:36.987Z,101445.84
2018-10-21T01:37:39.578Z,101443.17
2018-10-21T01:38:42.218Z,101436.03
2018-10-21T01:40:53.658Z,101428.86
2018-10-21T01:41:56.298Z,101429.59
2018-10-21T01:42:58.984Z,101422.08
2018-10-21T01:44:01.627Z,101413.21
2018-10-21T01:45:04.466Z,101418.19
2018-10-21T01:46:07.180Z,101408.48
2018-10-21T01:47:09.823Z,101406.17
2018-10-21T01:48:13.699Z,101405.70
2018-10-21T01:49:16.358Z,101395.86
2018-10-21T01:50:19.022Z,101399.87
2018-10-21T01:51:21.682Z,101404.73
2018-10-21T01:52:24.324Z,101399.87
2018-10-21T01:53:26.966Z,101407.77
2018-10-21T01:54:29.598Z,101400.59
2018-10-21T01:55:32.266Z,101394.28
2018-10-21T01:56:34.958Z,101395.14
2018-10-21T01:57:37.614Z,101393.31
2018-10-21T01:58:40.266Z,101384.33
2018-10-21T01:59:42.902Z,101376.33
2018-10-21T02:00:45.742Z,101370.38
2018-10-21T02:01:48.422Z,101367.70
2018-10-21T02:02:51.082Z,101364.06
2018-10-21T02:03:53.814Z,101360.06
2018-10-21T02:04:56.442Z,101352.41
2018-10-21T02:05:59.099Z,101345.27
2018-10-21T02:07:01.796Z,101339.42
2018-10-21T02:08:04.606Z,101337.12
2018-10-21T02:09:07.326Z,101334.81
2018-10-21T02:10:09.940Z,101329.98
2018-10-21T02:11:12.612Z,101331.53
2018-10-21T02:12:15.318Z,101330.56
2018-10-21T02:13:18.178Z,101329.11
2018-10-21T02:14:21.316Z,101318.33
2018-10-21T02:15:24.276Z,101315.16
2018-10-21T02:16:26.919Z,101311.51
2018-10-21T02:17:29.657Z,101312.84
2018-10-21T02:18:32.330Z,101314.55
2018-10-21T02:19:34.994Z,101300.22
2018-10-21T02:20:37.661Z,101301.91
2018-10-21T02:21:40.326Z,101296.10
2018-10-21T02:22:43.845Z,101296.47
2018-10-21T02:23:46.494Z,101286.62
2018-10-21T02:24:49.786Z,101289.79
2018-10-21T02:25:52.438Z,101294.01
2018-10-21T02:26:55.205Z,101286.87
2018-10-21T02:27:57.766Z,101290.87
2018-10-21T02:29:00.410Z,101288.56
2018-10-21T02:30:03.236Z,101289.39
2018-10-21T02:31:05.923Z,101289.75
2018-10-21T02:32:08.574Z,101291.09
2018-10-21T02:33:11.349Z,101294.63
2018-10-21T02:34:13.980Z,101297.29
2018-10-21T02:35:17.171Z,101286.61
2018-10-21T02:36:19.816Z,101288.78
2018-10-21T02:37:22.603Z,101286.47
2018-10-21T02:38:25.298Z,101288.30
2018-10-21T02:39:27.942Z,101285.64
2018-10-21T02:41:46.047Z,101282.61
2018-10-21T02:42:48.695Z,101294.37
2018-10-21T02:43:51.457Z,101300.33
2018-10-21T02:44:54.170Z,101297.29
2018-10-21T02:45:56.878Z,101302.13
2018-10-21T02:46:59.566Z,101301.41
2018-10-21T02:48:02.211Z,101303.11
2018-10-21T02:49:05.831Z,101293.39
2018-10-21T02:50:08.487Z,101293.90
2018-10-21T02:51:11.839Z,101288.56
2018-10-21T02:52:14.426Z,101285.39
2018-10-21T02:53:17.110Z,101285.89
2018-10-21T02:54:23.894Z,101282.25
2018-10-21T02:55:26.584Z,101280.91
2018-10-21T02:56:29.298Z,101279.58
2018-10-21T02:57:31.987Z,101280.91
2018-10-21T02:58:34.626Z,101284.05
2018-10-21T02:59:39.142Z,101276.91
2018-10-21T03:00:41.786Z,101282.25
2018-10-21T03:01:44.448Z,101287.59
2018-10-21T03:02:47.102Z,101271.20
2018-10-21T03:03:50.442Z,101272.54
2018-10-21T03:04:53.130Z,101273.26
2018-10-21T03:05:55.786Z,101267.20
2018-10-21T03:06:58.438Z,101253.84
2018-10-21T03:08:01.082Z,101267.56
2018-10-21T03:09:04.924Z,101258.22
2018-10-21T03:10:07.746Z,101252.52
2018-10-21T03:11:10.414Z,101244.86
2018-10-21T03:12:13.078Z,101244.00
2018-10-21T03:13:15.742Z,101250.67
2018-10-21T03:14:18.415Z,101243.53
2018-10-21T03:15:21.118Z,101243.02
2018-10-21T03:16:23.759Z,101235.02
2018-10-21T03:17:26.408Z,101223.50
2018-10-21T03:18:29.410Z,101223.36
2018-10-21T03:19:31.979Z,101222.74
2018-10-21T03:20:34.671Z,101213.54
2018-10-21T03:21:37.399Z,101223.72
2018-10-21T03:22:40.050Z,101215.23
2018-10-21T03:23:42.693Z,101219.71
2018-10-21T03:24:45.328Z,101230.28
2018-10-21T03:25:48.031Z,101228.95
2018-10-21T03:26:50.678Z,101236.45
2018-10-21T03:27:53.319Z,101229.78
2018-10-21T03:28:55.967Z,101225.77
2018-10-21T03:29:58.614Z,101217.29
2018-10-21T03:31:01.498Z,101213.03
2018-10-21T03:32:04.468Z,101223.82
2018-10-21T03:33:07.607Z,101217.64
2018-10-21T03:34:10.261Z,101218.00
2018-10-21T03:35:12.910Z,101205.63
2018-10-21T03:36:15.607Z,101200.29
2018-10-21T03:37:18.274Z,101194.44
2018-10-21T03:38:20.914Z,101197.98
2018-10-21T03:39:23.581Z,101199.78
2018-10-21T03:40:26.419Z,101199.78
2018-10-21T03:41:29.106Z,101192.28
2018-10-21T03:42:31.786Z,101184.62
2018-10-21T03:43:34.455Z,101191.30
2018-10-21T03:44:37.100Z,101192.64
2018-10-21T03:45:39.767Z,101194.44
2018-10-21T03:46:42.419Z,101189.97
2018-10-21T03:47:45.058Z,101188.27
2018-10-21T03:48:47.738Z,101192.64
2018-10-21T03:49:50.402Z,101193.61
2018-10-21T03:50:53.046Z,101192.28
2018-10-21T03:51:55.728Z,101192.39
2018-10-21T03:52:58.711Z,101188.27
2018-10-21T03:54:01.508Z,101182.43
2018-10-21T03:55:04.191Z,101181.23
2018-10-21T03:56:06.986Z,101188.27
2018-10-21T03:57:09.702Z,101187.91
2018-10-21T03:58:12.454Z,101181.59
2018-10-21T03:59:15.042Z,101189.25
2018-10-21T04:00:17.708Z,101197.26
2018-10-21T04:01:20.434Z,101192.75
2018-10-21T04:02:23.126Z,101200.76
2018-10-21T04:03:25.774Z,101196.28
2018-10-21T04:04:28.422Z,101194.59
2018-10-21T04:05:31.110Z,101190.94
2018-10-21T04:06:33.780Z,101182.43
2018-10-21T04:07:36.491Z,101171.89
2018-10-21T04:08:39.139Z,101171.53
2018-10-21T04:09:41.822Z,101175.90
2018-10-21T04:10:44.467Z,101178.06
2018-10-21T04:11:47.114Z,101179.91
2018-10-21T04:12:49.830Z,101169.22
2018-10-21T04:13:52.466Z,101170.05
2018-10-21T04:14:55.111Z,101114.80
2018-10-21T04:15:57.755Z,101178.56
2018-10-21T04:17:00.418Z,101180.38
2018-10-21T04:18:03.075Z,101185.72
2018-10-21T04:19:05.730Z,101179.55
2018-10-21T04:20:08.674Z,101177.70
2018-10-21T04:21:11.346Z,101175.54
2018-10-21T04:22:14.104Z,101172.37
2018-10-21T04:23:16.806Z,101163.52
2018-10-21T04:24:19.455Z,101163.88
2018-10-21T04:25:22.946Z,101155.01
2018-10-21T04:26:25.594Z,101161.21
2018-10-21T04:27:28.245Z,101163.88
2018-10-21T04:28:30.994Z,101162.05
2018-10-21T04:29:33.638Z,101155.87
2018-10-21T04:30:38.469Z,101158.55
2018-10-21T04:31:41.131Z,101167.89
2018-10-21T04:32:43.978Z,101167.53
2018-10-21T04:33:46.839Z,101171.03
2018-10-21T04:34:49.486Z,101166.05
2018-10-21T04:35:52.144Z,101168.72
2018-10-21T04:39:04.230Z,101164.35
2018-10-21T04:40:17.044Z,101158.02
2018-10-21T04:41:19.659Z,101153.66
2018-10-21T04:42:22.306Z,101146.27
2018-10-21T04:43:25.019Z,101150.62
2018-10-21T04:44:27.682Z,101142.25
2018-10-21T04:45:30.379Z,101137.27
2018-10-21T04:46:33.051Z,101135.08
2018-10-21T04:47:35.780Z,101142.50
2018-10-21T04:48:38.448Z,101140.66
2018-10-21T04:49:41.095Z,101146.86
2018-10-21T04:50:44.014Z,101147.22
2018-10-21T04:51:46.658Z,101144.76
2018-10-21T04:52:49.322Z,101150.45
2018-10-21T04:53:51.958Z,101148.50
2018-10-21T04:54:54.681Z,101143.05
2018-10-21T04:55:57.520Z,101139.40
2018-10-21T04:57:00.170Z,101134.41
2018-10-21T04:58:02.904Z,101129.28
2018-10-21T04:59:05.547Z,101124.80
2018-10-21T05:00:12.478Z,101123.31
2018-10-21T05:01:15.105Z,101126.70
2018-10-21T05:02:17.751Z,101120.38
2018-10-21T05:03:20.402Z,101123.41
2018-10-21T05:04:23.126Z,101118.21
2018-10-21T05:05:25.775Z,101116.38
2018-10-21T05:06:28.474Z,101119.40
2018-10-21T05:07:31.175Z,101111.38
2018-10-21T05:08:33.794Z,101117.08
2018-10-21T05:09:36.454Z,101117.08
2018-10-21T05:10:39.787Z,101110.64
2018-10-21T05:11:42.420Z,101114.66
2018-10-21T05:12:45.146Z,101111.51
2018-10-21T05:13:47.798Z,101119.52
2018-10-21T05:14:50.449Z,101121.69
2018-10-21T05:15:53.184Z,101112.84
2018-10-21T05:16:55.856Z,101119.73
2018-10-21T05:17:58.530Z,101126.55
2018-10-21T05:19:01.163Z,101128.72
2018-10-21T05:20:03.840Z,101134.42
2018-10-21T05:21:06.579Z,101128.72
2018-10-21T05:22:09.292Z,101125.07
2018-10-21T05:23:11.926Z,101128.61
2018-10-21T05:24:14.558Z,101126.29
2018-10-21T05:25:17.230Z,101129.79
2018-10-21T05:26:19.981Z,101131.63
2018-10-21T05:27:22.633Z,101127.00
2018-10-21T05:28:25.266Z,101128.34
2018-10-21T05:29:27.917Z,101121.66
2018-10-21T05:30:30.575Z,101116.67
2018-10-21T05:31:33.323Z,101114.00
2018-10-21T05:32:35.978Z,101107.32
2018-10-21T05:33:38.662Z,101103.31
2018-10-21T05:34:41.339Z,101079.59
2018-10-21T05:35:43.984Z,101100.48
2018-10-21T05:36:46.743Z,101092.98
2018-10-21T05:37:49.439Z,101087.13
2018-10-21T05:38:52.142Z,101086.30
2018-10-21T05:39:54.902Z,101090.31
2018-10-21T05:40:57.570Z,101093.81
2018-10-21T05:42:00.229Z,101092.48
2018-10-21T05:43:02.874Z,101092.48
2018-10-21T05:44:05.677Z,101090.78
2018-10-21T05:45:08.526Z,101095.14
2018-10-21T05:46:15.299Z,101094.31
2018-10-21T05:47:18.042Z,101090.66
2018-10-21T05:48:20.773Z,101096.01
2018-10-21T05:49:23.416Z,101032.77
2018-10-21T05:50:26.066Z,101089.33
2018-10-21T05:51:28.718Z,101087.99
2018-10-21T05:52:31.434Z,101087.13
2018-10-21T05:53:34.072Z,101086.66
2018-10-21T05:54:40.554Z,101095.14
2018-10-21T05:55:43.478Z,101092.48
2018-10-21T05:56:48.146Z,101095.03
2018-10-21T05:57:50.984Z,101098.17
2018-10-21T05:58:53.652Z,101101.70
2018-10-21T05:59:56.292Z,101101.35
2018-10-21T06:00:58.966Z,101098.68
2018-10-21T06:02:01.690Z,101103.16
2018-10-21T06:03:04.669Z,101104.50
2018-10-21T06:04:08.051Z,101101.35
2018-10-21T06:05:47.902Z,101107.67
2018-10-21T06:06:50.552Z,101106.19
2018-10-21T06:07:53.206Z,101109.02
2018-10-21T06:08:55.872Z,101118.36
2018-10-21T06:09:58.524Z,101111.80
2018-10-21T06:11:01.178Z,101114.47
2018-10-21T06:12:03.898Z,101112.78
2018-10-21T06:13:06.607Z,101110.11
2018-10-21T06:14:09.254Z,101110.38
2018-10-21T06:15:11.906Z,101110.62
2018-10-21T06:16:14.582Z,101104.41
2018-10-21T06:17:21.314Z,101101.73
2018-10-21T06:18:25.811Z,101103.94
2018-10-21T06:19:38.934Z,101100.28
2018-10-21T06:20:50.290Z,101092.27
2018-10-21T06:21:53.006Z,101086.92
2018-10-21T06:22:55.750Z,101065.26
2018-10-21T06:23:58.380Z,101089.24
2018-10-21T06:25:01.022Z,101085.70
2018-10-21T06:26:03.702Z,101093.72
2018-10-21T06:27:06.366Z,101095.92
2018-10-21T06:28:09.028Z,101089.72
2018-10-21T06:29:11.682Z,101084.02
2018-10-21T06:30:14.402Z,101090.58
2018-10-21T06:31:17.061Z,101089.72
2018-10-21T06:32:19.763Z,101085.35
2018-10-21T06:33:22.414Z,101082.68
2018-10-21T06:34:25.113Z,101080.52
2018-10-21T06:35:27.746Z,101080.87
2018-10-21T06:36:30.398Z,101079.18
2018-10-21T06:37:33.070Z,101072.00
2018-10-21T06:38:35.718Z,101077.84
2018-10-21T06:39:38.360Z,101076.16
2018-10-21T06:40:41.026Z,101081.85
2018-10-21T06:41:43.730Z,101073.48
2018-10-21T06:42:46.387Z,101084.52
2018-10-21T06:43:49.024Z,101071.64
2018-10-21T06:44:51.838Z,101075.64
2018-10-21T06:45:54.484Z,101066.30
2018-10-21T06:46:57.112Z,101061.81
2018-10-21T06:47:59.757Z,101056.47
2018-10-21T06:49:02.432Z,101047.13
2018-10-21T06:50:05.634Z,101040.44
2018-10-21T06:51:08.332Z,101043.11
2018-10-21T06:52:11.275Z,101027.09
2018-10-21T06:53:13.930Z,101026.10
2018-10-21T06:54:16.573Z,101018.09
2018-10-21T06:55:19.238Z,101019.42
2018-10-21T06:56:21.943Z,101015.41
2018-10-21T06:57:25.041Z,101025.12
2018-10-21T06:58:27.501Z,101033.14
2018-10-21T06:59:30.243Z,101040.80
2018-10-21T07:00:32.911Z,101046.14
2018-10-21T07:01:35.551Z,101043.11
2018-10-21T07:02:38.282Z,101033.61
2018-10-21T07:03:40.942Z,101036.28
2018-10-21T07:04:43.669Z,101039.46
2018-10-21T07:06:26.572Z,101040.80
2018-10-21T07:07:29.258Z,101037.14
2018-10-21T07:08:31.904Z,101042.84
2018-10-21T07:09:34.535Z,101038.13
2018-10-21T07:10:37.171Z,101039.46
2018-10-21T07:11:39.835Z,101027.09
2018-10-21T07:12:42.558Z,101028.77
2018-10-21T07:13:45.206Z,101023.08
2018-10-21T07:14:47.858Z,101020.41
2018-10-21T07:15:50.582Z,101022.09
2018-10-21T07:16:53.187Z,101027.44
2018-10-21T07:17:55.826Z,101024.77
2018-10-21T07:18:58.470Z,101027.44
2018-10-21T07:20:01.126Z,101020.25
2018-10-21T07:21:03.943Z,101023.44
2018-10-21T07:22:06.621Z,101018.92
2018-10-21T07:23:09.262Z,101025.48
2018-10-21T07:24:11.906Z,101018.92
2018-10-21T07:25:14.558Z,101025.95
2018-10-21T07:26:17.199Z,101025.12
2018-10-21T07:27:19.850Z,101019.78
2018-10-21T07:28:22.595Z,101008.23
2018-10-21T07:29:25.255Z,101006.42
2018-10-21T07:30:27.966Z,101009.92
2018-10-21T07:31:30.634Z,101013.45
2018-10-21T07:32:33.295Z,101009.45
2018-10-21T07:33:35.926Z,101006.42
2018-10-21T07:34:38.580Z,101007.75
2018-10-21T07:35:41.242Z,101013.45
2018-10-21T07:36:43.910Z,101016.13
2018-10-21T07:37:46.554Z,101020.61
2018-10-21T07:38:49.202Z,101026.81
2018-10-21T07:39:51.874Z,101029.48
2018-10-21T07:40:54.914Z,101035.18
2018-10-21T07:41:57.588Z,101027.64
2018-10-21T07:43:00.222Z,101014.79
2018-10-21T07:44:03.107Z,100999.70
2018-10-21T07:45:05.937Z,101015.50
2018-10-21T07:46:08.713Z,101011.97
2018-10-21T07:47:11.329Z,101004.10
2018-10-21T07:48:13.996Z,101002.27
2018-10-21T07:49:16.696Z,100996.09
2018-10-21T07:50:19.332Z,100998.25
2018-10-21T07:51:21.990Z,101003.13
2018-10-21T07:52:24.682Z,101003.95
2018-10-21T07:53:27.322Z,101004.45
2018-10-21T07:54:29.964Z,101010.27
2018-10-21T07:55:32.679Z,101019.63
2018-10-21T07:56:35.342Z,101024.97
2018-10-21T07:57:37.997Z,101023.16
2018-10-21T07:58:40.630Z,101022.18
2018-10-21T07:59:43.294Z,101021.31
2018-10-21T08:00:45.969Z,101022.66
2018-10-21T08:01:49.493Z,101023.52
2018-10-21T08:02:52.135Z,101028.00
2018-10-21T08:03:54.809Z,101028.86
2018-10-21T08:04:57.495Z,101029.21
2018-10-21T08:06:26.542Z,101023.52
2018-10-21T08:07:40.529Z,101024.84
2018-10-21T08:08:43.267Z,101035.89
2018-10-21T08:09:45.870Z,101032.87
2018-10-21T08:10:48.518Z,101031.17
2018-10-21T08:11:51.178Z,101027.52
2018-10-21T08:12:53.815Z,101028.50
2018-10-21T08:13:56.461Z,101025.83
2018-10-21T08:14:59.159Z,101019.16
2018-10-21T08:16:01.830Z,101016.83
2018-10-21T08:17:04.653Z,101007.95
2018-10-21T08:18:08.239Z,101003.48
2018-10-21T08:19:10.893Z,101006.63
2018-10-21T08:20:13.542Z,101008.82
2018-10-21T08:21:16.262Z,101006.14
2018-10-21T08:22:18.883Z,101000.80
2018-10-21T08:23:21.582Z,100998.48
2018-10-21T08:24:24.260Z,100995.81
2018-10-21T08:25:26.926Z,100995.30
2018-10-21T08:26:29.594Z,100988.27
2018-10-21T08:27:32.257Z,100996.64
2018-10-21T08:28:34.977Z,100993.50
2018-10-21T08:29:37.638Z,100989.48
2018-10-21T08:30:40.292Z,100988.16
2018-10-21T08:31:42.999Z,100985.84
2018-10-21T08:32:46.473Z,100981.83
2018-10-21T08:33:49.163Z,100983.16
2018-10-21T08:34:51.810Z,100983.16
2018-10-21T08:35:54.488Z,100997.70
2018-10-21T08:36:57.183Z,101009.38
2018-10-21T08:37:59.818Z,101012.91
2018-10-21T08:39:03.794Z,101014.59
2018-10-21T08:40:06.561Z,101021.48
2018-10-21T08:41:09.174Z,101025.72
2018-10-21T08:42:11.838Z,101013.06
2018-10-21T08:43:14.487Z,101007.25
2018-10-21T08:44:17.218Z,101002.61
2018-10-21T08:45:19.985Z,101002.81
2018-10-21T08:46:22.792Z,101000.02
2018-10-21T08:47:25.342Z,100999.86
2018-10-21T08:48:27.982Z,100969.45
2018-10-21T08:49:30.744Z,101001.55
2018-10-21T08:50:33.392Z,101000.13
2018-10-21T08:51:36.058Z,100999.63
2018-10-21T08:52:38.707Z,101000.48
2018-10-21T08:53:41.367Z,101002.65
2018-10-21T08:54:44.117Z,100996.31
2018-10-21T08:55:46.847Z,100996.31
2018-10-21T08:56:49.475Z,100985.16
2018-10-21T08:57:52.170Z,100976.27
2018-10-21T08:58:55.330Z,100976.63
2018-10-21T08:59:58.006Z,100976.27
2018-10-21T09:01:00.697Z,100974.94
2018-10-21T09:02:03.444Z,100969.95
2018-10-21T09:03:06.107Z,100976.15
2018-10-21T09:04:08.813Z,100969.11
2018-10-21T09:05:12.726Z,100973.13
2018-10-21T09:06:15.390Z,100962.55
2018-10-21T09:07:18.077Z,100961.09
2018-10-21T09:08:20.723Z,100952.22
2018-10-21T09:09:23.391Z,100951.23
2018-10-21T09:10:26.237Z,100947.22
2018-10-21T09:11:28.877Z,100942.39
2018-10-21T09:12:31.518Z,100939.84
2018-10-21T09:13:34.183Z,100938.37
2018-10-21T09:14:36.849Z,100936.69
2018-10-21T09:15:39.622Z,100913.84
2018-10-21T09:16:42.353Z,100936.46
2018-10-21T09:17:44.944Z,100938.02
2018-10-21T09:18:47.625Z,100940.34
2018-10-21T09:19:50.294Z,100944.20
2018-10-21T09:20:53.046Z,100941.68
2018-10-21T09:21:55.824Z,100950.05
2018-10-21T09:22:58.477Z,100938.50
2018-10-21T09:24:01.119Z,100935.35
2018-10-21T09:25:03.858Z,100928.32
2018-10-21T09:26:06.594Z,100932.17
2018-10-21T09:27:09.260Z,100932.68
2018-10-21T09:28:12.490Z,100939.01
2018-10-21T09:29:15.124Z,100934.49
2018-10-21T09:30:17.783Z,100924.31
2018-10-21T09:31:20.534Z,100919.79
2018-10-21T09:32:23.177Z,100917.63
2018-10-21T09:33:25.870Z,100918.45
2018-10-21T09:34:28.647Z,100921.98
2018-10-21T09:35:31.342Z,100926.47
2018-10-21T09:36:34.098Z,100919.79
2018-10-21T09:37:36.786Z,100917.47
2018-10-21T09:38:39.456Z,100912.13
2018-10-21T09:39:42.138Z,100901.44
2018-10-21T09:40:44.797Z,100909.45
2018-10-21T09:41:47.583Z,100910.67
2018-10-21T09:42:50.510Z,100905.44
2018-10-21T09:43:53.252Z,100915.50
2018-10-21T09:44:55.916Z,100913.34
2018-10-21T09:45:58.671Z,100923.52
2018-10-21T09:47:01.382Z,100924.03
2018-10-21T09:48:04.421Z,100879.52
2018-10-21T09:49:07.782Z,100932.40
2018-10-21T09:50:10.467Z,100935.08
2018-10-21T09:51:13.122Z,100938.09
2018-10-21T09:52:15.893Z,100943.44
2018-10-21T09:53:18.577Z,100936.25
2018-10-21T09:54:21.236Z,100933.93
2018-10-21T09:55:23.891Z,100929.09
2018-10-21T09:56:26.522Z,100927.75
2018-10-21T09:57:29.294Z,100920.09
2018-10-21T09:58:32.002Z,100913.53
2018-10-21T09:59:34.671Z,100908.06
2018-10-21T10:00:42.863Z,100892.15
2018-10-21T10:01:50.998Z,100893.84
2018-10-21T10:02:59.218Z,100887.16
2018-10-21T10:04:01.968Z,100886.68
2018-10-21T10:05:04.930Z,100878.66
2018-10-21T10:06:07.588Z,100884.83
2018-10-21T10:07:10.313Z,100888.72
2018-10-21T10:08:13.013Z,100887.86
2018-10-21T10:09:15.703Z,100887.38
2018-10-21T10:10:18.500Z,100893.08
2018-10-21T10:11:21.061Z,100889.93
2018-10-21T10:12:23.727Z,100884.08
2018-10-21T10:13:26.480Z,100878.60
2018-10-21T10:14:29.135Z,100867.91
2018-10-21T10:15:31.790Z,100862.75
2018-10-21T10:16:35.525Z,100856.93
2018-10-21T10:17:38.216Z,100842.30
2018-10-21T10:18:41.134Z,100832.77
2018-10-21T10:19:43.811Z,100818.93
2018-10-21T10:20:46.462Z,100821.31
2018-10-21T10:21:49.102Z,100820.67
2018-10-21T10:22:51.784Z,100829.75
2018-10-21T10:23:54.643Z,100829.11
2018-10-21T10:24:57.224Z,100824.45
2018-10-21T10:25:59.874Z,100831.37
2018-10-21T10:27:02.542Z,100828.53
2018-10-21T10:28:06.040Z,100819.87
2018-10-21T10:29:08.660Z,100825.44
2018-10-21T10:30:12.216Z,100821.78
2018-10-21T10:31:15.038Z,100831.84
2018-10-21T10:32:17.578Z,100831.67
2018-10-21T10:33:20.214Z,100834.70
2018-10-21T10:34:22.966Z,100831.03
2018-10-21T10:35:25.658Z,100839.76
2018-10-21T10:36:28.615Z,100837.08
2018-10-21T10:37:31.267Z,100839.63
2018-10-21T10:38:33.988Z,100830.61
2018-10-21T10:39:36.798Z,100826.13
2018-10-21T10:40:39.435Z,100831.31
2018-10-21T10:41:42.131Z,100821.13
2018-10-21T10:42:44.772Z,100825.83
2018-10-21T10:43:47.426Z,100819.97
2018-10-21T10:44:50.170Z,100820.83
2018-10-21T10:45:52.834Z,100824.33
2018-10-21T10:46:55.484Z,100821.66
2018-10-21T10:47:58.135Z,100813.16
2018-10-21T10:49:00.813Z,100821.02
2018-10-21T10:50:04.101Z,100813.50
2018-10-21T10:51:07.117Z,100821.88
2018-10-21T10:52:09.890Z,100817.86
2018-10-21T10:53:12.495Z,100812.80
2018-10-21T10:54:15.326Z,100816.02
2018-10-21T10:55:18.180Z,100816.52
2018-10-21T10:56:20.750Z,100824.39
2018-10-21T10:57:23.506Z,100829.73
2018-10-21T10:58:26.162Z,100819.55
2018-10-21T10:59:28.886Z,100822.57
2018-10-21T11:00:31.620Z,100829.73
2018-10-21T11:01:34.273Z,100837.28
2018-10-21T11:02:36.934Z,100838.62
2018-10-21T11:03:39.572Z,100834.61
2018-10-21T11:04:42.205Z,100835.95
2018-10-21T11:05:45.101Z,100836.77
2018-10-21T11:06:47.762Z,100829.73
2018-10-21T11:07:50.402Z,100820.72
2018-10-21T11:08:53.066Z,100818.21
2018-10-21T11:09:55.763Z,100821.23
2018-10-21T11:10:58.528Z,100836.30
2018-10-21T11:12:01.180Z,100830.09
2018-10-21T11:13:03.842Z,100827.92
2018-10-21T11:14:06.558Z,100826.94
2018-10-21T11:15:09.218Z,100820.43
2018-10-21T11:16:11.975Z,100822.81
2018-10-21T11:17:14.543Z,100834.64
2018-10-21T11:18:17.186Z,100837.91
2018-10-21T11:19:22.783Z,100841.33
2018-10-21T11:20:25.446Z,100839.47
2018-10-21T11:21:28.198Z,100834.51
2018-10-21T11:22:30.962Z,100827.01
2018-10-21T11:23:33.595Z,100828.91
2018-10-21T11:24:40.746Z,100823.09
2018-10-21T11:25:43.407Z,100817.30
2018-10-21T11:26:46.172Z,100816.01
2018-10-21T11:27:48.822Z,100823.27
2018-10-21T11:28:51.478Z,100823.78
2018-10-21T11:29:54.130Z,100825.98
2018-10-21T11:30:56.795Z,100822.14
2018-10-21T11:31:59.581Z,100822.02
2018-10-21T11:33:02.252Z,100819.16
2018-10-21T11:34:04.943Z,100816.48
2018-10-21T11:35:07.663Z,100815.14
2018-10-21T11:36:10.302Z,100812.47
2018-10-21T11:37:13.201Z,100812.12
2018-10-21T11:38:15.731Z,100809.45
2018-10-21T11:39:18.430Z,100806.42
2018-10-21T11:40:21.075Z,100812.77
2018-10-21T11:41:23.730Z,100816.45
2018-10-21T11:42:26.494Z,100806.72
2018-10-21T11:43:29.240Z,100796.66
2018-10-21T11:44:31.894Z,100789.14
2018-10-21T11:45:34.564Z,100790.61
2018-10-21T11:46:37.238Z,100786.25
2018-10-21T11:47:40.018Z,100783.74
2018-10-21T11:48:42.659Z,100786.55
2018-10-21T11:49:45.306Z,100779.52
2018-10-21T11:50:47.994Z,100781.36
2018-10-21T11:51:50.629Z,100787.37
2018-10-21T11:52:53.418Z,100795.05
2018-10-21T11:53:56.077Z,100796.87
2018-10-21T11:54:58.821Z,100798.52
2018-10-21T11:56:01.475Z,100792.16
2018-10-21T11:57:04.794Z,100794.15
2018-10-21T11:58:11.206Z,100792.47
2018-10-21T11:59:13.790Z,100786.42
2018-10-21T12:00:16.474Z,100783.74
2018-10-21T12:01:19.214Z,100785.08
2018-10-21T12:02:21.822Z,100759.70
2018-10-21T12:03:24.587Z,100786.72